Time;durP1;ratioP1;P1;durP2;ratioP2;P2;SDS_P1;SDS_P2;PMS_P1;PMS_P2;Temp;Humidity;BMP_temperature;BMP_pressure;BME280_temperature;BME280_humidity;BME280_pressure;Samples;Min_cycle;Max_cycle;Signal;HPM_P1;HPM_P2
2021/11/15 00:00:20;;;;;;;22.97;13.47;;;10.20;92.50;;;;;;5056015;28;20039;-72
2021/11/15 00:02:46;;;;;;;22.97;14.37;;;10.20;92.40;;;;;;5049468;28;20509;-72
2021/11/15 00:05:12;;;;;;;21.53;14.20;;;10.20;92.40;;;;;;5034466;28;20076;-72
2021/11/15 00:07:38;;;;;;;21.87;14.27;;;10.20;92.40;;;;;;5034892;28;20029;-72
2021/11/15 00:10:06;;;;;;;24.00;14.00;;;10.20;92.40;;;;;;5035652;28;20107;-72
2021/11/15 00:12:32;;;;;;;25.73;15.53;;;10.20;92.30;;;;;;5034883;28;20079;-71
2021/11/15 00:14:57;;;;;;;25.07;15.80;;;10.20;92.30;;;;;;5035314;28;20390;-72
2021/11/15 00:17:24;;;;;;;25.17;14.30;;;10.20;92.30;;;;;;5036243;28;20035;-71
2021/11/15 00:19:50;;;;;;;24.87;15.27;;;10.20;92.20;;;;;;5036141;28;20034;-72
2021/11/15 00:22:16;;;;;;;23.17;14.07;;;10.20;92.20;;;;;;5055671;28;20568;-71
2021/11/15 00:24:42;;;;;;;26.07;15.00;;;10.20;92.30;;;;;;5055739;28;20021;-72
2021/11/15 00:27:08;;;;;;;24.80;15.10;;;10.10;92.30;;;;;;5055828;28;20031;-71
2021/11/15 00:29:33;;;;;;;27.13;15.13;;;10.10;92.30;;;;;;5037972;28;20029;-71
2021/11/15 00:31:59;;;;;;;23.77;15.03;;;10.10;92.30;;;;;;5053320;28;20029;-72
2021/11/15 00:34:24;;;;;;;23.83;15.70;;;10.10;92.30;;;;;;5055463;28;20517;-72
2021/11/15 00:36:51;;;;;;;24.87;15.00;;;10.10;92.20;;;;;;5037621;28;20106;-71
2021/11/15 00:39:17;;;;;;;25.93;15.67;;;10.10;92.60;;;;;;5088110;28;20033;-72
2021/11/15 00:41:44;;;;;;;25.57;15.83;;;10.00;92.30;;;;;;5054394;28;20025;-72
2021/11/15 00:44:10;;;;;;;22.23;14.60;;;10.10;92.40;;;;;;5054553;28;20025;-72
2021/11/15 00:46:36;;;;;;;25.80;16.20;;;10.10;92.40;;;;;;5055536;28;20036;-71
2021/11/15 00:49:02;;;;;;;25.13;15.00;;;10.00;92.50;;;;;;5055716;28;20033;-72
2021/11/15 00:51:29;;;;;;;25.63;15.40;;;10.00;92.30;;;;;;5053760;28;20029;-71
2021/11/15 00:53:56;;;;;;;22.20;13.20;;;10.00;92.40;;;;;;5055251;28;20071;-71
2021/11/15 00:56:22;;;;;;;22.40;14.00;;;10.00;92.40;;;;;;5054040;28;20032;-72
2021/11/15 00:58:49;;;;;;;23.57;14.37;;;10.00;92.40;;;;;;5053798;28;20037;-72
2021/11/15 01:01:14;;;;;;;23.97;16.00;;;10.00;92.40;;;;;;5055054;28;20488;-72
2021/11/15 01:03:40;;;;;;;23.13;14.23;;;10.10;92.80;;;;;;5053702;28;20029;-72
2021/11/15 01:06:06;;;;;;;22.47;14.63;;;10.00;92.50;;;;;;5053952;28;20025;-72
2021/11/15 01:08:32;;;;;;;21.93;14.10;;;10.00;92.40;;;;;;5053454;28;20037;-71
2021/11/15 01:10:58;;;;;;;23.07;14.30;;;9.90;92.40;;;;;;5055226;28;20032;-71
2021/11/15 01:13:24;;;;;;;24.57;15.50;;;10.00;92.40;;;;;;5054896;28;20087;-71
2021/11/15 01:15:50;;;;;;;22.30;14.23;;;10.00;92.30;;;;;;5054828;28;20147;-71
2021/11/15 01:18:16;;;;;;;21.50;14.07;;;9.90;92.30;;;;;;5053529;28;20377;-71
2021/11/15 01:20:42;;;;;;;22.27;13.80;;;9.90;92.30;;;;;;5054909;28;20086;-71
2021/11/15 01:23:08;;;;;;;22.83;13.50;;;9.90;92.40;;;;;;5054799;28;20480;-72
2021/11/15 01:25:36;;;;;;;24.33;13.30;;;9.90;92.40;;;;;;5054041;28;20523;-72
2021/11/15 01:28:02;;;;;;;23.17;14.10;;;9.90;92.40;;;;;;5054786;28;20025;-72
2021/11/15 01:30:28;;;;;;;23.33;14.47;;;9.90;92.40;;;;;;5054787;28;20029;-71
2021/11/15 01:32:54;;;;;;;23.23;13.93;;;9.90;92.50;;;;;;5054202;28;20080;-72
2021/11/15 01:35:21;;;;;;;24.70;14.23;;;9.90;92.50;;;;;;5043661;28;20033;-78
2021/11/15 01:37:46;;;;;;;24.77;14.00;;;9.90;92.40;;;;;;5046182;28;20033;-77
2021/11/15 01:40:16;;;;;;;24.17;14.80;;;9.80;92.40;;;;;;5052386;28;20025;-77
2021/11/15 01:42:42;;;;;;;24.07;14.53;;;9.80;92.40;;;;;;5034792;28;20386;-77
2021/11/15 01:45:09;;;;;;;24.10;15.33;;;9.80;92.50;;;;;;5049597;28;20588;-77
2021/11/15 01:47:36;;;;;;;28.43;16.47;;;9.90;92.50;;;;;;5054005;28;20057;-77
2021/11/15 01:50:04;;;;;;;23.17;14.10;;;9.80;92.40;;;;;;5032378;28;20456;-77
2021/11/15 01:52:30;;;;;;;25.63;16.30;;;9.80;92.50;;;;;;5033861;28;20055;-77
2021/11/15 01:54:55;;;;;;;29.03;17.43;;;9.80;92.50;;;;;;5033795;28;20033;-77
2021/11/15 01:57:21;;;;;;;27.47;17.37;;;9.80;92.50;;;;;;5041675;28;20131;-77
2021/11/15 01:59:47;;;;;;;26.33;16.47;;;9.80;92.50;;;;;;5035987;28;20063;-77
2021/11/15 02:02:13;;;;;;;24.57;15.93;;;9.70;92.40;;;;;;5052729;28;20104;-77
2021/11/15 02:04:39;;;;;;;26.93;16.77;;;9.70;92.40;;;;;;5050197;28;20061;-71
2021/11/15 02:07:05;;;;;;;26.17;16.70;;;9.70;92.50;;;;;;5045945;28;20040;-71
2021/11/15 02:09:31;;;;;;;28.27;16.73;;;9.70;92.50;;;;;;5053525;28;20067;-71
2021/11/15 02:11:57;;;;;;;27.87;16.77;;;9.70;92.50;;;;;;5054045;28;20033;-71
2021/11/15 02:14:23;;;;;;;25.57;16.90;;;9.70;92.60;;;;;;5053576;28;20017;-71
2021/11/15 02:16:49;;;;;;;26.73;16.37;;;9.60;92.60;;;;;;5043678;28;20048;-77
2021/11/15 02:19:14;;;;;;;29.43;17.83;;;9.60;92.60;;;;;;5047365;28;20088;-77
2021/11/15 02:21:40;;;;;;;28.00;17.40;;;9.60;92.70;;;;;;5033663;28;20025;-71
2021/11/15 02:24:06;;;;;;;28.73;17.03;;;9.60;92.70;;;;;;5053007;28;20037;-73
2021/11/15 02:26:31;;;;;;;31.87;18.40;;;9.60;92.70;;;;;;5053368;28;20158;-72
2021/11/15 02:28:57;;;;;;;26.87;17.97;;;9.60;92.60;;;;;;5053368;28;20392;-73
2021/11/15 02:31:28;;;;;;;28.97;17.90;;;9.60;92.90;;;;;;5052489;28;20070;-78
2021/11/15 02:33:56;;;;;;;30.07;18.43;;;9.60;92.70;;;;;;5051905;28;20056;-78
2021/11/15 02:36:24;;;;;;;30.43;18.83;;;9.60;92.60;;;;;;5053383;28;20036;-77
2021/11/15 02:38:51;;;;;;;28.03;18.00;;;9.60;92.70;;;;;;5053522;28;20108;-77
2021/11/15 02:41:17;;;;;;;26.53;17.20;;;9.60;92.70;;;;;;5052164;28;20027;-77
2021/11/15 02:43:44;;;;;;;29.50;17.07;;;9.60;93.10;;;;;;5035591;28;20112;-77
2021/11/15 02:46:10;;;;;;;24.87;16.17;;;9.60;92.90;;;;;;5053495;28;20033;-77
2021/11/15 02:48:35;;;;;;;29.83;17.60;;;9.60;92.90;;;;;;5053790;28;20067;-78
2021/11/15 02:51:02;;;;;;;29.37;18.27;;;9.60;92.90;;;;;;5052057;28;20064;-78
2021/11/15 02:53:27;;;;;;;27.67;18.47;;;9.60;92.80;;;;;;5053136;28;20071;-78
2021/11/15 02:55:54;;;;;;;25.97;16.73;;;9.60;92.90;;;;;;5052875;28;20478;-78
2021/11/15 02:58:20;;;;;;;26.37;16.70;;;9.70;93.00;;;;;;5052038;28;20036;-78
2021/11/15 03:00:48;;;;;;;29.47;17.90;;;9.60;93.00;;;;;;5053074;28;20343;-78
2021/11/15 03:03:15;;;;;;;30.60;18.77;;;9.60;93.00;;;;;;5053048;28;20067;-78
2021/11/15 03:05:43;;;;;;;32.50;20.13;;;9.60;93.00;;;;;;5051885;28;20028;-77
2021/11/15 03:08:10;;;;;;;33.37;19.40;;;9.60;92.90;;;;;;5053070;28;20056;-78
2021/11/15 03:10:38;;;;;;;32.30;19.97;;;9.60;92.90;;;;;;5051801;28;20033;-78
2021/11/15 03:13:06;;;;;;;32.70;20.60;;;9.50;92.90;;;;;;5053084;28;20481;-78
2021/11/15 03:15:37;;;;;;;32.90;18.97;;;9.50;92.90;;;;;;5053089;28;20470;-78
2021/11/15 03:18:08;;;;;;;31.50;19.20;;;9.50;92.90;;;;;;5051742;28;20067;-77
2021/11/15 03:20:46;;;;;;;32.10;19.73;;;9.50;93.00;;;;;;5052983;28;20029;-78
2021/11/15 03:23:19;;;;;;;34.10;20.27;;;9.50;93.00;;;;;;5052963;28;20067;-78
2021/11/15 03:25:46;;;;;;;34.37;21.73;;;9.50;93.00;;;;;;5051765;28;20017;-77
2021/11/15 03:28:15;;;;;;;33.03;21.20;;;9.40;92.90;;;;;;5052938;28;20112;-78
2021/11/15 03:30:41;;;;;;;35.83;20.50;;;9.50;92.90;;;;;;5052946;28;20032;-78
2021/11/15 03:33:09;;;;;;;30.60;18.70;;;9.40;92.90;;;;;;5085198;28;20549;-77
2021/11/15 03:35:35;;;;;;;35.43;21.03;;;9.40;92.90;;;;;;5052778;28;20432;-78
2021/11/15 03:38:01;;;;;;;35.47;20.87;;;9.40;93.00;;;;;;5051762;28;20438;-78
2021/11/15 03:40:27;;;;;;;37.17;23.10;;;9.40;93.00;;;;;;5052653;28;20112;-78
2021/11/15 03:42:56;;;;;;;35.23;22.43;;;9.40;93.00;;;;;;5052846;28;20068;-77
2021/11/15 03:45:23;;;;;;;35.73;21.97;;;9.40;93.00;;;;;;5051562;28;20053;-77
2021/11/15 03:47:49;;;;;;;36.50;21.40;;;9.50;93.10;;;;;;5052699;28;20547;-77
2021/11/15 03:50:14;;;;;;;35.77;21.70;;;9.40;93.00;;;;;;5052762;28;20040;-77
2021/11/15 03:52:42;;;;;;;31.47;20.27;;;9.40;93.00;;;;;;5051360;28;20044;-78
2021/11/15 03:55:10;;;;;;;38.37;22.43;;;9.40;93.10;;;;;;5051547;28;20036;-77
2021/11/15 03:57:36;;;;;;;34.67;21.57;;;9.40;93.10;;;;;;5052614;28;20025;-77
2021/11/15 04:00:05;;;;;;;32.10;21.40;;;9.40;93.20;;;;;;5051204;28;20033;-78
2021/11/15 04:02:33;;;;;;;33.77;20.63;;;9.40;93.20;;;;;;5051713;28;20483;-77
2021/11/15 04:05:04;;;;;;;36.67;22.13;;;9.30;93.20;;;;;;5051265;28;20025;-77
2021/11/15 04:07:49;;;;;;;33.00;21.03;;;9.30;93.30;;;;;;5054584;28;20025;-78
2021/11/15 04:10:24;;;;;;;36.80;20.90;;;9.40;93.30;;;;;;5056608;28;20032;-71
2021/11/15 04:12:50;;;;;;;37.53;21.23;;;9.30;93.30;;;;;;5056045;28;20040;-77
2021/11/15 04:15:16;;;;;;;34.17;21.73;;;9.30;93.30;;;;;;5056064;28;20385;-77
2021/11/15 04:17:44;;;;;;;41.50;24.90;;;9.40;93.40;;;;;;5055964;28;20044;-77
2021/11/15 04:20:14;;;;;;;38.33;23.33;;;9.40;93.40;;;;;;5055916;28;20029;-77
2021/11/15 04:22:40;;;;;;;37.87;23.27;;;9.40;93.30;;;;;;5055931;28;20405;-77
2021/11/15 04:25:08;;;;;;;38.40;22.90;;;9.30;93.30;;;;;;5055804;28;20029;-78
2021/11/15 04:27:34;;;;;;;36.13;22.53;;;9.40;93.30;;;;;;5055613;28;20021;-77
2021/11/15 04:30:04;;;;;;;38.37;23.90;;;9.40;93.30;;;;;;5037880;28;20211;-71
2021/11/15 04:32:30;;;;;;;34.03;21.83;;;9.40;93.40;;;;;;5055590;28;20043;-71
2021/11/15 04:34:55;;;;;;;36.77;23.80;;;9.40;93.40;;;;;;5037694;28;20049;-71
2021/11/15 04:37:21;;;;;;;42.40;26.27;;;9.40;93.40;;;;;;5054739;28;20033;-71
2021/11/15 04:39:47;;;;;;;43.73;25.10;;;9.40;93.30;;;;;;5052306;28;20037;-71
2021/11/15 04:42:12;;;;;;;47.60;27.13;;;9.40;93.30;;;;;;5044689;28;20021;-71
2021/11/15 04:44:38;;;;;;;42.53;26.13;;;9.40;93.10;;;;;;5034253;28;20390;-71
2021/11/15 04:47:04;;;;;;;41.53;25.27;;;9.40;93.00;;;;;;5034984;28;20026;-71
2021/11/15 04:49:30;;;;;;;42.30;25.83;;;9.40;93.10;;;;;;5035662;28;20064;-71
2021/11/15 04:51:56;;;;;;;40.67;26.00;;;9.40;93.10;;;;;;5034162;28;20080;-72
2021/11/15 04:54:22;;;;;;;38.23;22.50;;;9.30;93.10;;;;;;5034060;28;20036;-77
2021/11/15 04:56:48;;;;;;;41.67;25.03;;;9.30;93.10;;;;;;5035237;28;20109;-77
2021/11/15 04:59:14;;;;;;;38.87;24.00;;;9.40;93.10;;;;;;5034185;28;20045;-77
2021/11/15 05:01:40;;;;;;;36.87;21.87;;;9.30;93.00;;;;;;5035267;28;20033;-78
2021/11/15 05:04:07;;;;;;;37.57;23.47;;;9.20;93.30;;;;;;5034086;28;20025;-77
2021/11/15 05:06:32;;;;;;;35.87;23.83;;;9.20;93.00;;;;;;5035106;28;20351;-78
2021/11/15 05:08:59;;;;;;;40.07;24.00;;;9.20;93.00;;;;;;5035087;28;20041;-78
2021/11/15 05:11:24;;;;;;;38.80;23.43;;;9.20;93.30;;;;;;5033909;28;20099;-78
2021/11/15 05:13:50;;;;;;;41.23;25.10;;;9.20;93.00;;;;;;5035003;28;20482;-77
2021/11/15 05:16:16;;;;;;;40.00;24.37;;;9.30;93.10;;;;;;5034956;28;20143;-78
2021/11/15 05:18:42;;;;;;;42.43;25.57;;;9.20;93.00;;;;;;5033146;28;20037;-78
2021/11/15 05:21:08;;;;;;;37.77;23.70;;;9.20;93.00;;;;;;5033490;28;20028;-78
2021/11/15 05:23:33;;;;;;;39.83;24.33;;;9.20;93.10;;;;;;5033973;28;20033;-78
2021/11/15 05:25:59;;;;;;;39.37;24.43;;;9.20;93.10;;;;;;5036101;28;20033;-78
2021/11/15 05:28:25;;;;;;;39.83;24.30;;;9.30;93.20;;;;;;5086878;28;20029;-78
2021/11/15 05:30:51;;;;;;;38.47;24.13;;;9.30;93.20;;;;;;5044414;28;20152;-77
2021/11/15 05:33:16;;;;;;;41.73;25.30;;;9.20;93.20;;;;;;5034255;28;20049;-77
2021/11/15 05:35:42;;;;;;;39.20;26.13;;;9.30;93.20;;;;;;5018322;28;20056;-77
2021/11/15 05:38:08;;;;;;;38.37;24.57;;;9.20;93.20;;;;;;5034615;28;20022;-77
2021/11/15 05:40:34;;;;;;;38.57;23.30;;;9.20;93.20;;;;;;5032786;28;20025;-77
2021/11/15 05:43:00;;;;;;;37.97;23.87;;;9.30;93.20;;;;;;5033088;28;20022;-78
2021/11/15 05:45:28;;;;;;;34.87;22.87;;;9.30;93.20;;;;;;5047545;28;20075;-72
2021/11/15 05:47:54;;;;;;;37.53;23.53;;;9.30;93.30;;;;;;5086927;28;20056;-72
2021/11/15 05:50:21;;;;;;;38.53;24.50;;;9.20;93.20;;;;;;5047895;28;20029;-72
2021/11/15 05:52:47;;;;;;;38.40;24.30;;;9.20;93.30;;;;;;5024074;28;20030;-72
2021/11/15 05:55:17;;;;;;;37.40;23.77;;;9.20;93.30;;;;;;5040442;28;20021;-78
2021/11/15 05:57:43;;;;;;;36.70;23.07;;;9.30;93.30;;;;;;5054035;28;20107;-78
2021/11/15 06:00:13;;;;;;;36.93;24.37;;;9.30;93.30;;;;;;5053636;28;20431;-78
2021/11/15 06:02:39;;;;;;;39.47;25.17;;;9.30;93.30;;;;;;5045122;28;20540;-72
2021/11/15 06:05:06;;;;;;;38.10;24.07;;;9.30;93.30;;;;;;5053057;28;20113;-72
2021/11/15 06:07:32;;;;;;;38.23;24.50;;;9.30;93.30;;;;;;5051471;28;20021;-72
2021/11/15 06:09:57;;;;;;;37.20;23.03;;;9.30;93.30;;;;;;5036307;28;20075;-78
2021/11/15 06:12:23;;;;;;;36.80;24.10;;;9.30;93.30;;;;;;5035908;28;20366;-79
2021/11/15 06:14:48;;;;;;;38.70;23.93;;;9.30;93.30;;;;;;5053934;28;20500;-78
2021/11/15 06:17:15;;;;;;;35.37;22.77;;;9.20;93.30;;;;;;5052448;28;20500;-72
2021/11/15 06:19:41;;;;;;;37.40;23.53;;;9.20;93.40;;;;;;5052315;28;20047;-72
2021/11/15 06:22:07;;;;;;;34.77;23.87;;;9.20;93.40;;;;;;5053679;28;20033;-72
2021/11/15 06:24:33;;;;;;;37.83;24.07;;;9.20;93.40;;;;;;5019264;28;20381;-72
2021/11/15 06:26:58;;;;;;;39.67;24.10;;;9.20;93.50;;;;;;5048644;28;20492;-71
2021/11/15 06:29:24;;;;;;;39.80;23.90;;;9.20;93.40;;;;;;5035042;28;20037;-77
2021/11/15 06:31:50;;;;;;;42.67;24.97;;;9.20;93.40;;;;;;5049022;28;20686;-77
2021/11/15 06:34:15;;;;;;;38.23;21.93;;;9.20;93.40;;;;;;5031879;28;20045;-77
2021/11/15 06:36:41;;;;;;;38.90;21.93;;;9.20;93.40;;;;;;5032007;28;20037;-77
2021/11/15 06:39:06;;;;;;;33.87;20.77;;;9.10;93.40;;;;;;5033112;28;20061;-78
2021/11/15 06:41:33;;;;;;;34.63;20.17;;;9.10;93.30;;;;;;5032369;28;20025;-78
2021/11/15 06:43:58;;;;;;;33.10;18.63;;;9.10;93.30;;;;;;5033265;28;20029;-78
2021/11/15 06:46:27;;;;;;;31.33;19.37;;;9.10;93.30;;;;;;5031840;28;20385;-78
2021/11/15 06:48:52;;;;;;;30.47;18.10;;;9.00;93.40;;;;;;5033595;28;20025;-71
2021/11/15 06:51:18;;;;;;;30.47;18.07;;;9.10;93.40;;;;;;5032206;28;20029;-70
2021/11/15 06:53:45;;;;;;;31.83;17.87;;;9.00;93.50;;;;;;5034982;28;20036;-71
2021/11/15 06:56:11;;;;;;;30.97;18.60;;;9.00;93.50;;;;;;5051929;28;20036;-71
2021/11/15 06:58:37;;;;;;;31.50;18.90;;;9.00;93.60;;;;;;5051687;28;20116;-71
2021/11/15 07:01:04;;;;;;;30.03;16.93;;;9.00;93.70;;;;;;5053172;28;20052;-71
2021/11/15 07:03:30;;;;;;;32.77;19.43;;;9.00;93.70;;;;;;5051993;28;20072;-71
2021/11/15 07:05:56;;;;;;;31.70;19.23;;;9.10;93.80;;;;;;5055200;28;20033;-71
2021/11/15 07:08:22;;;;;;;35.23;19.60;;;9.10;93.80;;;;;;5051891;28;20508;-71
2021/11/15 07:10:48;;;;;;;30.53;18.90;;;9.10;93.80;;;;;;5051167;28;20049;-71
2021/11/15 07:13:15;;;;;;;33.20;20.20;;;9.10;93.70;;;;;;5035001;28;20025;-71
2021/11/15 07:15:41;;;;;;;34.43;20.33;;;9.10;93.70;;;;;;5035174;28;20047;-71
2021/11/15 07:18:07;;;;;;;33.50;19.33;;;9.10;93.70;;;;;;5052387;28;20025;-71
2021/11/15 07:20:32;;;;;;;31.80;18.53;;;9.10;93.70;;;;;;5052143;28;20035;-70
2021/11/15 07:22:58;;;;;;;32.53;19.27;;;9.10;93.70;;;;;;5051809;28;20029;-72
2021/11/15 07:25:24;;;;;;;32.87;18.10;;;9.10;93.80;;;;;;5051218;28;20029;-71
2021/11/15 07:27:52;;;;;;;34.47;19.43;;;9.10;93.90;;;;;;5052280;28;20035;-71
2021/11/15 07:30:19;;;;;;;28.63;17.33;;;9.10;93.90;;;;;;5052718;28;20470;-71
2021/11/15 07:32:45;;;;;;;29.97;17.17;;;9.10;93.90;;;;;;5052689;28;20091;-73
2021/11/15 07:35:12;;;;;;;29.73;17.20;;;9.10;94.00;;;;;;5051312;28;20448;-71
2021/11/15 07:37:37;;;;;;;29.60;17.30;;;9.10;94.00;;;;;;5052541;28;20079;-71
2021/11/15 07:40:08;;;;;;;28.93;17.10;;;9.10;94.00;;;;;;5051143;28;20396;-72
2021/11/15 07:42:34;;;;;;;29.83;17.97;;;9.10;94.00;;;;;;5054877;28;20078;-72
2021/11/15 07:45:01;;;;;;;27.23;15.67;;;9.10;94.00;;;;;;5056141;28;20104;-72
2021/11/15 07:47:27;;;;;;;29.67;17.57;;;9.10;94.00;;;;;;5056205;28;20113;-77
2021/11/15 07:49:53;;;;;;;30.03;16.80;;;9.10;94.00;;;;;;5055306;28;20107;-77
2021/11/15 07:52:19;;;;;;;30.00;17.50;;;9.10;94.00;;;;;;5056702;28;20029;-77
2021/11/15 07:54:46;;;;;;;28.77;16.73;;;9.10;94.00;;;;;;5056192;28;20036;-77
2021/11/15 07:57:12;;;;;;;27.47;15.13;;;9.10;94.00;;;;;;5056033;28;20049;-77
2021/11/15 07:59:38;;;;;;;26.07;15.67;;;9.10;93.90;;;;;;5056046;28;20032;-77
2021/11/15 08:02:04;;;;;;;27.27;15.47;;;9.10;93.90;;;;;;5056060;28;20051;-77
2021/11/15 08:04:31;;;;;;;26.00;15.07;;;9.10;93.90;;;;;;5088193;28;20136;-77
2021/11/15 08:06:57;;;;;;;29.63;16.87;;;9.10;93.90;;;;;;5051610;28;20102;-78
2021/11/15 08:09:23;;;;;;;31.13;17.43;;;9.10;93.80;;;;;;5054783;28;20071;-78
2021/11/15 08:11:51;;;;;;;29.53;16.33;;;9.10;93.80;;;;;;5055965;28;20520;-78
2021/11/15 08:14:18;;;;;;;28.37;16.27;;;9.10;93.80;;;;;;5054772;28;20095;-78
2021/11/15 08:16:46;;;;;;;30.93;17.80;;;9.10;93.80;;;;;;5055661;28;20074;-72
2021/11/15 08:19:12;;;;;;;29.63;16.47;;;9.10;93.80;;;;;;5053858;28;20423;-72
2021/11/15 08:21:38;;;;;;;29.30;15.90;;;9.00;93.70;;;;;;5055291;28;20025;-72
2021/11/15 08:24:45;;;;;;;29.53;17.07;;;9.00;93.70;;;;;;5055431;28;20033;-72
2021/11/15 08:27:11;;;;;;;23.57;13.63;;;9.00;93.80;;;;;;5055479;28;20028;-72
2021/11/15 08:29:38;;;;;;;25.43;14.10;;;9.00;93.70;;;;;;5054086;28;20024;-72
2021/11/15 08:32:06;;;;;;;26.03;13.83;;;9.00;93.80;;;;;;5070661;28;20616;-78
2021/11/15 08:34:33;;;;;;;23.27;13.03;;;9.00;93.70;;;;;;5020477;28;20552;-72
2021/11/15 08:37:00;;;;;;;25.47;13.33;;;9.00;93.80;;;;;;5053876;28;20124;-71
2021/11/15 08:39:27;;;;;;;22.80;13.13;;;9.00;93.90;;;;;;5037398;28;20424;-71
2021/11/15 08:42:02;;;;;;;24.67;14.03;;;9.00;93.80;;;;;;5055290;28;20113;-71
2021/11/15 08:44:29;;;;;;;27.50;14.17;;;9.00;93.80;;;;;;5055186;28;20481;-71
2021/11/15 08:46:57;;;;;;;25.03;12.70;;;9.00;93.80;;;;;;5055372;28;20032;-71
2021/11/15 08:49:26;;;;;;;23.97;13.30;;;9.00;93.80;;;;;;5055291;28;20025;-71
2021/11/15 08:51:52;;;;;;;25.30;13.53;;;9.00;93.80;;;;;;5054694;28;20106;-71
2021/11/15 08:54:19;;;;;;;22.33;13.27;;;9.00;93.80;;;;;;5053560;28;20059;-77
2021/11/15 08:56:52;;;;;;;24.93;13.97;;;9.00;93.70;;;;;;5037789;28;20029;-71
2021/11/15 08:59:19;;;;;;;23.63;12.63;;;9.00;93.70;;;;;;5055042;28;20052;-72
2021/11/15 09:01:45;;;;;;;26.50;14.37;;;9.00;93.80;;;;;;5037321;28;20029;-72
2021/11/15 09:04:11;;;;;;;25.13;13.33;;;9.00;93.80;;;;;;5055161;28;20033;-72
2021/11/15 09:06:38;;;;;;;26.13;14.00;;;9.00;93.80;;;;;;5055475;28;20025;-79
2021/11/15 09:09:05;;;;;;;24.10;13.17;;;9.00;93.80;;;;;;5055164;28;20047;-71
2021/11/15 09:11:31;;;;;;;28.17;14.77;;;9.00;93.80;;;;;;5053854;28;20108;-71
2021/11/15 09:13:58;;;;;;;27.30;15.33;;;9.00;93.70;;;;;;5053744;28;20029;-71
2021/11/15 09:16:24;;;;;;;27.90;15.30;;;9.00;93.70;;;;;;5053397;28;20025;-71
2021/11/15 09:18:50;;;;;;;24.57;13.60;;;9.00;93.70;;;;;;5053544;28;20029;-71
2021/11/15 09:21:16;;;;;;;25.83;13.67;;;9.00;93.70;;;;;;5054646;28;20036;-71
2021/11/15 09:23:45;;;;;;;29.20;15.90;;;9.00;93.70;;;;;;5036802;28;20389;-71
2021/11/15 09:26:12;;;;;;;31.30;17.10;;;9.00;93.70;;;;;;5053469;28;20420;-71
2021/11/15 09:28:39;;;;;;;26.63;15.40;;;9.00;93.70;;;;;;5053288;28;20544;-71
2021/11/15 09:31:07;;;;;;;31.57;16.77;;;9.00;93.60;;;;;;5036483;28;20021;-77
2021/11/15 09:33:33;;;;;;;26.00;15.33;;;9.00;93.70;;;;;;5054467;28;20521;-78
2021/11/15 09:35:59;;;;;;;32.10;16.10;;;9.00;93.70;;;;;;5086442;28;20030;-78
2021/11/15 09:38:27;;;;;;;30.17;17.13;;;9.00;93.80;;;;;;5054346;28;20021;-71
2021/11/15 09:40:56;;;;;;;35.20;18.43;;;9.00;93.80;;;;;;5053519;28;20025;-71
2021/11/15 09:43:33;;;;;;;34.17;18.00;;;9.00;93.80;;;;;;5053810;28;20421;-71
2021/11/15 09:46:02;;;;;;;30.00;15.27;;;9.00;93.80;;;;;;5053117;28;20474;-78
2021/11/15 09:48:31;;;;;;;31.60;16.07;;;9.10;93.90;;;;;;5051958;28;20021;-77
2021/11/15 09:50:57;;;;;;;23.53;13.53;;;9.00;93.70;;;;;;5048197;28;20023;-72
2021/11/15 09:53:22;;;;;;;25.40;13.67;;;8.90;93.70;;;;;;5049882;28;20029;-72
2021/11/15 09:55:48;;;;;;;24.50;13.13;;;9.00;93.80;;;;;;5034250;28;20634;-72
2021/11/15 09:58:14;;;;;;;24.93;13.57;;;8.90;93.80;;;;;;5053794;28;20021;-72
2021/11/15 10:00:44;;;;;;;24.23;13.20;;;8.90;93.80;;;;;;5053666;28;20048;-72
2021/11/15 10:03:10;;;;;;;25.37;12.43;;;8.90;93.80;;;;;;5052883;28;20466;-72
2021/11/15 10:05:36;;;;;;;22.43;11.93;;;8.90;93.80;;;;;;5036163;28;20120;-72
2021/11/15 10:08:08;;;;;;;24.30;11.53;;;8.90;93.80;;;;;;5052878;28;20107;-72
2021/11/15 10:10:59;;;;;;;21.43;11.40;;;8.80;93.80;;;;;;5053890;28;20524;-78
2021/11/15 10:13:30;;;;;;;20.47;10.67;;;8.80;93.80;;;;;;5053765;28;20021;-78
2021/11/15 10:16:08;;;;;;;22.90;11.17;;;8.80;93.90;;;;;;5036293;28;20025;-78
2021/11/15 10:18:40;;;;;;;22.03;11.23;;;8.80;93.90;;;;;;5053437;28;20025;-77
2021/11/15 10:21:12;;;;;;;20.70;10.47;;;8.80;93.90;;;;;;5053463;28;20508;-72
2021/11/15 10:23:42;;;;;;;22.60;11.63;;;8.80;94.00;;;;;;5053477;28;20051;-72
2021/11/15 10:26:15;;;;;;;23.20;11.80;;;8.80;94.00;;;;;;5053688;28;20043;-71
2021/11/15 10:28:42;;;;;;;26.50;12.80;;;8.80;93.90;;;;;;5052296;28;20067;-71
2021/11/15 10:31:30;;;;;;;25.17;13.20;;;8.80;93.90;;;;;;5052633;28;20445;-71
2021/11/15 10:33:56;;;;;;;24.03;12.47;;;8.80;93.90;;;;;;5053615;28;20049;-71
2021/11/15 10:36:46;;;;;;;21.37;11.73;;;8.80;93.90;;;;;;5035537;28;20333;-72
2021/11/15 10:39:12;;;;;;;22.33;11.90;;;8.80;93.80;;;;;;5053301;28;20025;-72
2021/11/15 10:41:37;;;;;;;20.27;10.30;;;8.80;93.80;;;;;;5053418;28;20050;-72
2021/11/15 10:44:08;;;;;;;20.90;9.60;;;8.80;93.80;;;;;;5052053;28;20021;-72
2021/11/15 10:46:38;;;;;;;21.53;10.30;;;8.90;93.80;;;;;;5052259;28;20032;-72
2021/11/15 10:49:06;;;;;;;24.17;11.83;;;8.80;93.80;;;;;;5051917;28;20047;-72
2021/11/15 10:51:51;;;;;;;20.70;11.10;;;8.80;93.80;;;;;;5052726;28;20036;-72
2021/11/15 10:57:19;;;;;;;25.10;12.60;;;8.80;93.70;;;;;;5053274;28;20414;-72
2021/11/15 11:00:09;;;;;;;26.03;12.63;;;8.80;93.70;;;;;;5051915;28;20469;-72
2021/11/15 11:02:47;;;;;;;25.07;13.13;;;8.70;93.70;;;;;;5053547;28;20656;-73
2021/11/15 11:05:20;;;;;;;24.60;12.63;;;8.70;93.70;;;;;;5053121;28;20021;-72
2021/11/15 11:08:08;;;;;;;29.08;14.07;;;8.60;93.70;;;;;;5053171;28;20021;-72
2021/11/15 11:10:43;;;;;;;30.80;15.13;;;8.60;93.80;;;;;;5051475;28;20376;-72
2021/11/15 11:13:11;;;;;;;27.47;13.60;;;8.60;93.80;;;;;;5053189;28;20029;-78
2021/11/15 11:15:42;;;;;;;30.33;15.43;;;8.60;93.80;;;;;;5052524;28;20488;-73
2021/11/15 11:26:28;;;;;;;27.63;13.90;;;8.60;94.00;;;;;;5056926;28;20033;-77
2021/11/15 11:29:00;;;;;;;28.93;15.17;;;8.50;94.20;;;;;;5056407;28;20033;-72
2021/11/15 11:31:27;;;;;;;27.13;15.17;;;8.50;94.20;;;;;;5048429;28;20029;-71
2021/11/15 11:33:53;;;;;;;29.00;14.73;;;8.40;94.20;;;;;;5055437;28;20067;-72
2021/11/15 11:36:19;;;;;;;29.73;14.47;;;8.50;94.20;;;;;;5055510;28;20040;-71
2021/11/15 11:38:46;;;;;;;28.33;14.80;;;8.40;94.30;;;;;;5055957;28;20025;-77
2021/11/15 11:41:14;;;;;;;28.57;14.87;;;8.50;94.30;;;;;;5054662;28;20432;-77
2021/11/15 11:43:41;;;;;;;24.73;12.87;;;8.50;94.40;;;;;;5055328;28;20031;-77
2021/11/15 11:46:06;;;;;;;29.67;14.47;;;8.50;94.40;;;;;;5056102;28;20021;-77
2021/11/15 11:48:33;;;;;;;24.00;13.17;;;8.50;94.40;;;;;;5056360;28;20063;-77
2021/11/15 11:50:59;;;;;;;25.47;13.50;;;8.50;94.50;;;;;;5056317;28;20037;-77
2021/11/15 11:53:29;;;;;;;29.80;14.97;;;8.50;94.40;;;;;;5056267;28;20029;-77
2021/11/15 11:55:57;;;;;;;26.00;14.53;;;8.50;94.50;;;;;;5054518;28;20033;-77
2021/11/15 11:58:32;;;;;;;24.20;13.63;;;8.50;94.50;;;;;;5051359;28;20520;-77
2021/11/15 12:01:18;;;;;;;26.23;12.80;;;8.50;94.50;;;;;;5047516;28;20559;-77
2021/11/15 12:04:18;;;;;;;25.77;12.37;;;8.50;94.50;;;;;;5054529;28;20524;-77
2021/11/15 12:06:46;;;;;;;21.87;11.57;;;8.60;94.50;;;;;;5054670;28;20120;-77
2021/11/15 12:09:16;;;;;;;26.60;12.17;;;8.60;94.40;;;;;;5056084;28;20036;-78
2021/11/15 12:11:53;;;;;;;23.90;12.27;;;8.60;94.40;;;;;;5054682;28;20032;-78
2021/11/15 12:14:32;;;;;;;25.33;13.03;;;8.60;94.40;;;;;;5055791;28;20021;-78
2021/11/15 12:17:17;;;;;;;22.13;12.10;;;8.60;94.40;;;;;;5054652;28;20035;-72
2021/11/15 12:19:49;;;;;;;24.20;11.50;;;8.60;94.40;;;;;;5055825;28;20470;-72
2021/11/15 12:22:17;;;;;;;21.37;12.27;;;8.60;94.40;;;;;;5054266;28;20033;-78
2021/11/15 12:25:05;;;;;;;25.23;11.70;;;8.60;94.40;;;;;;5056125;28;20028;-78
2021/11/15 12:27:42;;;;;;;25.97;12.47;;;8.60;94.40;;;;;;5054565;28;20013;-72
2021/11/15 12:30:17;;;;;;;24.80;12.57;;;8.50;94.30;;;;;;5055677;28;20036;-72
2021/11/15 12:32:44;;;;;;;22.73;12.50;;;8.60;94.30;;;;;;5054561;28;20024;-72
2021/11/15 12:35:10;;;;;;;21.80;11.10;;;8.50;94.20;;;;;;5055710;28;20091;-73
2021/11/15 12:37:44;;;;;;;23.27;11.30;;;8.50;94.30;;;;;;5037751;28;20041;-72
2021/11/15 12:40:36;;;;;;;24.38;12.90;;;8.50;94.30;;;;;;5055234;28;20025;-72
2021/11/15 12:43:15;;;;;;;24.70;11.77;;;8.60;94.20;;;;;;5056074;28;20461;-72
2021/11/15 12:46:05;;;;;;;26.80;13.13;;;8.60;94.30;;;;;;5054383;28;20017;-72
2021/11/15 12:48:40;;;;;;;21.33;10.87;;;8.60;94.20;;;;;;5055362;28;20347;-78
2021/11/15 12:51:17;;;;;;;28.90;13.40;;;8.50;94.20;;;;;;5054122;28;20025;-77